Time;durP1;ratioP1;P1;durP2;ratioP2;P2;SDS_P1;SDS_P2;PMS_P1;PMS_P2;Temp;Humidity;BMP_temperature;BMP_pressure;BME280_temperature;BME280_humidity;BME280_pressure;Samples;Min_cycle;Max_cycle;Signal;HPM_P1;HPM_P2
2022/03/28 00:01:31;;;;;;;15.57;5.70;;;1.60;57.40;;;;;;5031865;28;20229;-73
2022/03/28 00:03:56;;;;;;;11.87;5.47;;;1.50;57.30;;;;;;5032251;28;20205;-73
2022/03/28 00:06:22;;;;;;;15.50;6.00;;;1.50;57.60;;;;;;5032135;28;20540;-72
2022/03/28 00:08:49;;;;;;;15.17;5.73;;;1.40;58.00;;;;;;5031819;28;20178;-74
2022/03/28 00:11:16;;;;;;;14.90;5.50;;;1.40;58.20;;;;;;5032474;28;20225;-73
2022/03/28 00:13:42;;;;;;;15.87;4.93;;;1.40;58.50;;;;;;5031679;28;20229;-74
2022/03/28 00:16:08;;;;;;;13.67;6.93;;;1.30;59.20;;;;;;5031952;28;20266;-74
2022/03/28 00:18:34;;;;;;;13.57;6.17;;;1.30;59.30;;;;;;5031743;28;20272;-73
2022/03/28 00:20:59;;;;;;;16.00;5.70;;;1.30;59.60;;;;;;5032094;28;20523;-74
2022/03/28 00:23:25;;;;;;;14.90;6.00;;;1.30;59.70;;;;;;5014138;28;20212;-67
2022/03/28 00:25:51;;;;;;;15.03;5.67;;;1.30;59.30;;;;;;5032101;28;20179;-74
2022/03/28 00:28:17;;;;;;;10.53;5.07;;;1.50;58.80;;;;;;5014465;28;20242;-74
2022/03/28 00:30:44;;;;;;;15.77;5.83;;;1.60;58.40;;;;;;5031778;28;20177;-74
2022/03/28 00:33:09;;;;;;;17.43;6.33;;;1.80;58.30;;;;;;5031779;28;20224;-73
2022/03/28 00:35:36;;;;;;;15.90;6.03;;;1.80;58.30;;;;;;5023540;28;20485;-74
2022/03/28 00:38:05;;;;;;;15.83;5.80;;;1.90;59.00;;;;;;5012091;28;20182;-73
2022/03/28 00:40:32;;;;;;;15.97;5.83;;;2.00;58.50;;;;;;5011937;28;20180;-74
2022/03/28 00:42:59;;;;;;;15.40;5.63;;;2.00;58.20;;;;;;5010501;28;20197;-74
2022/03/28 00:45:25;;;;;;;16.23;5.70;;;2.00;58.40;;;;;;5011976;28;20192;-73
2022/03/28 00:47:51;;;;;;;16.53;6.03;;;1.90;59.80;;;;;;5013697;28;20657;-74
2022/03/28 00:50:18;;;;;;;16.03;6.00;;;1.80;59.80;;;;;;5016075;28;20274;-74
2022/03/28 00:52:44;;;;;;;13.10;5.87;;;1.70;59.50;;;;;;5015567;28;20201;-74
2022/03/28 00:55:10;;;;;;;18.57;6.00;;;1.70;59.20;;;;;;5016005;28;20284;-73
2022/03/28 00:57:36;;;;;;;16.50;5.90;;;1.60;59.20;;;;;;5015281;28;20203;-73
2022/03/28 01:00:06;;;;;;;15.37;6.23;;;1.60;59.10;;;;;;5014480;28;20654;-74
2022/03/28 01:02:32;;;;;;;13.53;6.23;;;1.50;59.20;;;;;;5015345;28;20172;-74
2022/03/28 01:04:59;;;;;;;15.53;6.13;;;1.40;59.40;;;;;;5015368;28;20180;-74
2022/03/28 01:07:28;;;;;;;16.13;6.13;;;1.40;59.70;;;;;;5015671;28;20199;-75
2022/03/28 01:09:55;;;;;;;14.93;5.67;;;1.30;60.30;;;;;;5015417;28;20183;-74
2022/03/28 01:12:23;;;;;;;19.40;6.43;;;1.20;60.90;;;;;;5015214;28;20237;-74
2022/03/28 01:14:49;;;;;;;16.33;6.27;;;1.10;61.80;;;;;;5015363;28;20180;-74
2022/03/28 01:20:00;;;;;;;14.27;5.60;;;0.80;62.10;;;;;;5015486;28;20555;-73
2022/03/28 01:22:26;;;;;;;16.33;5.67;;;0.60;62.20;;;;;;5015358;28;20184;-75
2022/03/28 01:24:51;;;;;;;20.37;6.30;;;0.50;62.60;;;;;;5013984;28;20184;-73
2022/03/28 01:27:21;;;;;;;14.50;5.80;;;0.40;62.80;;;;;;5015225;28;20233;-74
2022/03/28 01:29:47;;;;;;;19.90;5.80;;;0.30;62.80;;;;;;5014742;28;20183;-73
2022/03/28 01:32:13;;;;;;;18.87;5.90;;;0.30;63.00;;;;;;5014935;28;20211;-74
2022/03/28 01:34:38;;;;;;;15.67;5.60;;;0.20;63.30;;;;;;5015028;28;20262;-74
2022/03/28 01:37:04;;;;;;;13.57;6.13;;;0.20;63.30;;;;;;5034297;28;20241;-74
2022/03/28 01:39:31;;;;;;;13.73;5.30;;;0.10;63.40;;;;;;5016363;28;20202;-72
2022/03/28 01:41:58;;;;;;;12.10;5.40;;;0.00;63.80;;;;;;5034105;28;20197;-72
2022/03/28 01:44:25;;;;;;;19.17;5.83;;;-0.10;64.50;;;;;;5016913;28;20190;-75
2022/03/28 01:46:51;;;;;;;14.07;5.30;;;-0.20;65.00;;;;;;5034329;28;20248;-74
2022/03/28 01:49:19;;;;;;;15.80;5.10;;;-0.30;65.70;;;;;;5034099;28;20248;-73
2022/03/28 01:51:46;;;;;;;13.33;5.77;;;-0.30;65.70;;;;;;5033605;28;20297;-74
2022/03/28 01:54:13;;;;;;;14.20;5.70;;;-0.30;65.70;;;;;;5034212;28;20694;-72
2022/03/28 01:56:40;;;;;;;15.07;5.53;;;-0.30;65.80;;;;;;5033994;28;20661;-73
2022/03/28 01:59:06;;;;;;;13.77;5.33;;;-0.30;65.60;;;;;;5034175;28;20248;-74
2022/03/28 02:01:33;;;;;;;15.07;5.93;;;-0.30;65.50;;;;;;5034123;28;20179;-72
2022/03/28 02:03:59;;;;;;;17.73;5.43;;;-0.30;65.40;;;;;;5034133;28;20542;-73
2022/03/28 02:06:26;;;;;;;13.93;5.27;;;-0.20;66.10;;;;;;5034359;28;20178;-73
2022/03/28 02:08:52;;;;;;;13.17;4.90;;;-0.20;65.00;;;;;;5033875;28;20174;-74
2022/03/28 02:11:18;;;;;;;12.23;5.20;;;-0.20;64.60;;;;;;5016031;28;20245;-73
2022/03/28 02:13:43;;;;;;;15.03;5.37;;;-0.10;64.40;;;;;;5017585;28;20213;-75
2022/03/28 02:16:09;;;;;;;12.70;5.10;;;-0.10;64.20;;;;;;5044813;28;20240;-75
2022/03/28 02:18:35;;;;;;;15.43;6.20;;;-0.10;64.10;;;;;;5033488;28;20183;-74
2022/03/28 02:21:01;;;;;;;11.40;4.67;;;-0.10;64.00;;;;;;5033706;28;20181;-74
2022/03/28 02:23:28;;;;;;;16.37;5.53;;;0.00;63.80;;;;;;5016054;28;20218;-74
2022/03/28 02:25:54;;;;;;;14.63;5.40;;;0.10;63.70;;;;;;5015928;28;20533;-74
2022/03/28 02:28:19;;;;;;;11.53;4.83;;;0.10;63.20;;;;;;5015677;28;20186;-74
2022/03/28 02:30:45;;;;;;;10.93;4.93;;;0.10;63.10;;;;;;5033748;28;20183;-74
2022/03/28 02:33:11;;;;;;;10.33;4.83;;;0.10;62.90;;;;;;5015806;28;20210;-74
2022/03/28 02:35:37;;;;;;;13.43;5.03;;;0.10;62.70;;;;;;5017356;28;20460;-75
2022/03/28 02:38:03;;;;;;;12.53;4.90;;;0.10;62.70;;;;;;4996383;28;20202;-74
2022/03/28 02:40:29;;;;;;;15.23;5.23;;;0.00;63.00;;;;;;5013788;28;20290;-72
2022/03/28 02:42:58;;;;;;;18.50;5.63;;;-0.10;63.60;;;;;;5013920;28;20189;-72
2022/03/28 02:45:36;;;;;;;15.53;5.23;;;-0.20;64.00;;;;;;5013539;28;20218;-72
2022/03/28 02:48:03;;;;;;;14.47;5.57;;;-0.30;64.60;;;;;;5013569;28;20172;-69
2022/03/28 02:50:30;;;;;;;13.13;6.10;;;-0.40;65.30;;;;;;5012884;28;20222;-73
2022/03/28 02:52:56;;;;;;;16.13;6.50;;;-0.40;66.20;;;;;;5012368;28;20249;-73
2022/03/28 02:55:23;;;;;;;17.03;6.13;;;-0.50;67.50;;;;;;5012264;28;20666;-75
2022/03/28 02:57:48;;;;;;;17.87;6.40;;;-0.70;68.70;;;;;;5010930;28;20599;-74
2022/03/28 03:00:14;;;;;;;16.53;6.30;;;-0.80;69.70;;;;;;5011284;28;20304;-74
2022/03/28 03:02:44;;;;;;;15.30;5.90;;;-0.80;70.80;;;;;;5012333;28;20195;-73
2022/03/28 03:05:12;;;;;;;17.13;6.67;;;-0.90;72.20;;;;;;5012270;28;20194;-74
2022/03/28 03:07:38;;;;;;;17.07;6.50;;;-0.90;73.80;;;;;;5012243;28;20186;-74
2022/03/28 03:10:05;;;;;;;19.80;7.23;;;-1.00;75.00;;;;;;5011468;28;20280;-74
2022/03/28 03:12:31;;;;;;;14.73;6.20;;;-1.10;75.70;;;;;;5012268;28;20253;-73
2022/03/28 03:14:57;;;;;;;16.93;6.87;;;-1.20;76.20;;;;;;5011597;28;20218;-73
2022/03/28 03:17:23;;;;;;;15.67;5.07;;;-1.20;76.90;;;;;;5012246;28;20277;-73
2022/03/28 03:19:49;;;;;;;16.33;6.30;;;-1.30;77.20;;;;;;5011789;28;20214;-74
2022/03/28 03:22:15;;;;;;;13.00;5.73;;;-1.30;77.60;;;;;;5012254;28;20190;-73
2022/03/28 03:24:43;;;;;;;15.27;5.90;;;-1.30;77.10;;;;;;5011959;28;20726;-73
2022/03/28 03:27:08;;;;;;;14.63;5.73;;;-1.30;76.60;;;;;;5011747;28;20631;-76
2022/03/28 03:29:35;;;;;;;18.83;6.40;;;-1.30;77.20;;;;;;5012106;28;20232;-74
2022/03/28 03:32:03;;;;;;;15.43;5.70;;;-1.30;77.50;;;;;;5012132;28;20221;-72
2022/03/28 03:34:29;;;;;;;17.30;6.10;;;-1.30;77.50;;;;;;5011998;28;20189;-75
2022/03/28 03:36:55;;;;;;;17.27;6.40;;;-1.30;77.40;;;;;;5011658;28;20553;-76
2022/03/28 03:39:25;;;;;;;17.20;6.67;;;-1.20;77.20;;;;;;5010601;28;20657;-75
2022/03/28 03:41:51;;;;;;;15.03;5.97;;;-1.20;77.00;;;;;;5011551;28;20208;-75
2022/03/28 03:44:17;;;;;;;17.63;5.37;;;-1.20;76.60;;;;;;5011585;28;20186;-74
2022/03/28 03:46:43;;;;;;;13.03;5.10;;;-1.20;76.60;;;;;;5011760;28;20190;-73
2022/03/28 03:49:09;;;;;;;14.17;5.47;;;-1.10;76.50;;;;;;4973402;28;1361736;-73
2022/03/28 03:51:36;;;;;;;16.57;5.67;;;-1.20;76.50;;;;;;5014024;28;20641;-76
2022/03/28 03:54:02;;;;;;;15.23;6.10;;;-1.20;76.60;;;;;;5032098;28;20247;-73
2022/03/28 03:56:28;;;;;;;16.77;5.90;;;-1.20;76.90;;;;;;5031606;28;20191;-74
2022/03/28 03:58:58;;;;;;;20.93;6.33;;;-1.20;77.00;;;;;;5031764;28;20172;-74
2022/03/28 04:01:26;;;;;;;26.23;7.03;;;-1.30;77.40;;;;;;5014104;28;20185;-74
2022/03/28 04:03:55;;;;;;;19.83;5.77;;;-1.30;77.90;;;;;;5031786;28;20190;-74
2022/03/28 04:06:21;;;;;;;12.47;5.50;;;-1.30;78.40;;;;;;5031625;28;20201;-76
2022/03/28 04:08:47;;;;;;;19.03;5.70;;;-1.30;79.40;;;;;;5013944;28;20186;-75
2022/03/28 04:11:13;;;;;;;15.53;5.93;;;-1.30;79.60;;;;;;5031697;28;20573;-75
2022/03/28 04:13:39;;;;;;;14.40;6.37;;;-1.30;80.10;;;;;;5012729;28;20227;-71
2022/03/28 04:16:05;;;;;;;15.17;5.73;;;-1.30;80.50;;;;;;5031631;28;20293;-75
2022/03/28 04:18:31;;;;;;;15.83;5.70;;;-1.30;80.90;;;;;;5013460;28;20185;-74
2022/03/28 04:20:57;;;;;;;21.10;7.60;;;-1.40;81.10;;;;;;5012421;28;20204;-74
2022/03/28 04:23:25;;;;;;;15.60;5.70;;;-1.30;80.40;;;;;;5031607;28;20193;-68
2022/03/28 04:25:51;;;;;;;15.47;5.60;;;-1.30;79.70;;;;;;5030976;28;20191;-69
2022/03/28 04:28:17;;;;;;;17.30;6.83;;;-1.20;79.10;;;;;;5013253;28;20188;-69
2022/03/28 04:30:42;;;;;;;15.13;7.70;;;-1.20;79.20;;;;;;5030144;28;20528;-70
2022/03/28 04:33:09;;;;;;;19.00;6.80;;;-1.20;79.50;;;;;;5030854;28;20260;-70
2022/03/28 04:35:36;;;;;;;48.87;14.30;;;-1.10;80.00;;;;;;5022401;28;20678;-70
2022/03/28 04:38:05;;;;;;;14.13;5.60;;;-1.00;79.70;;;;;;5010859;28;20182;-70
2022/03/28 04:40:32;;;;;;;16.70;7.17;;;-0.90;79.60;;;;;;5011083;28;20182;-71
2022/03/28 04:42:58;;;;;;;13.73;5.17;;;-0.80;79.50;;;;;;5010845;28;20193;-70
2022/03/28 04:45:24;;;;;;;14.67;5.77;;;-0.70;79.20;;;;;;5009777;28;20190;-70
2022/03/28 04:47:50;;;;;;;23.77;6.47;;;-0.60;78.90;;;;;;4993185;28;20287;-70
2022/03/28 04:50:16;;;;;;;16.77;5.50;;;-0.70;79.00;;;;;;5009702;28;20238;-69
2022/03/28 04:52:42;;;;;;;17.27;6.80;;;-0.70;79.20;;;;;;5009050;28;20215;-69
2022/03/28 04:55:08;;;;;;;26.50;7.53;;;-0.70;80.10;;;;;;5010242;28;20502;-70
2022/03/28 04:57:34;;;;;;;20.33;6.70;;;-0.70;79.50;;;;;;5011186;28;20238;-70
2022/03/28 05:00:00;;;;;;;19.97;6.70;;;-0.60;79.70;;;;;;5009589;28;20186;-70
2022/03/28 05:02:25;;;;;;;19.20;5.93;;;-0.60;79.20;;;;;;5010299;28;20213;-70
2022/03/28 05:04:51;;;;;;;17.33;5.67;;;-0.60;79.10;;;;;;5026645;28;20315;-70
2022/03/28 05:07:27;;;;;;;13.30;5.33;;;-0.60;79.20;;;;;;5030540;28;20232;-71
2022/03/28 05:09:53;;;;;;;17.10;5.73;;;-0.50;79.70;;;;;;5030033;28;20302;-70
2022/03/28 05:12:23;;;;;;;21.77;4.93;;;-0.50;79.90;;;;;;5030544;28;20352;-70
2022/03/28 05:14:53;;;;;;;16.30;4.97;;;-0.40;80.00;;;;;;5030450;28;20186;-70
2022/03/28 05:17:23;;;;;;;23.73;6.17;;;-0.30;80.30;;;;;;5030641;28;20198;-69
2022/03/28 05:19:50;;;;;;;13.43;5.63;;;-0.10;80.60;;;;;;5030237;28;20179;-69
2022/03/28 05:22:16;;;;;;;16.07;5.03;;;0.10;80.60;;;;;;5030863;28;20187;-70
2022/03/28 05:24:42;;;;;;;13.30;5.77;;;0.20;80.00;;;;;;5030652;28;20182;-67
2022/03/28 05:27:07;;;;;;;14.90;6.03;;;0.30;79.20;;;;;;5030600;28;20194;-68
2022/03/28 05:29:33;;;;;;;21.07;5.70;;;0.50;78.10;;;;;;5030575;28;20202;-70
2022/03/28 05:31:59;;;;;;;18.10;6.90;;;0.60;77.90;;;;;;5029980;28;20697;-69
2022/03/28 05:34:25;;;;;;;18.27;6.03;;;0.60;77.40;;;;;;5034098;28;20198;-72
2022/03/28 05:36:51;;;;;;;20.00;6.03;;;0.60;77.20;;;;;;5015332;28;20655;-70
2022/03/28 05:39:17;;;;;;;16.20;6.07;;;0.70;77.40;;;;;;5018031;28;20670;-69
2022/03/28 05:41:42;;;;;;;15.80;6.90;;;0.80;77.10;;;;;;5033467;28;20185;-69
2022/03/28 05:44:08;;;;;;;15.90;7.30;;;0.90;76.80;;;;;;5027905;28;20189;-69
2022/03/28 05:46:34;;;;;;;19.33;7.20;;;1.00;76.70;;;;;;5033196;28;20274;-69
2022/03/28 05:49:00;;;;;;;16.90;7.30;;;1.10;76.40;;;;;;5018704;28;20327;-70
2022/03/28 05:51:26;;;;;;;21.87;7.53;;;1.30;76.10;;;;;;5015875;28;20203;-68
2022/03/28 05:53:52;;;;;;;17.97;8.03;;;1.40;76.20;;;;;;5022911;28;20227;-70
2022/03/28 05:56:18;;;;;;;25.50;8.63;;;1.60;76.20;;;;;;5023955;28;20551;-71
2022/03/28 05:58:44;;;;;;;25.43;9.33;;;1.80;76.30;;;;;;4995635;28;20191;-70
2022/03/28 06:01:09;;;;;;;30.40;10.07;;;1.90;75.10;;;;;;5012469;28;20175;-69
2022/03/28 06:03:37;;;;;;;26.90;8.73;;;2.00;75.10;;;;;;5021941;28;20188;-70
2022/03/28 06:06:03;;;;;;;22.33;8.90;;;2.10;73.90;;;;;;5031074;28;20249;-70
2022/03/28 06:08:30;;;;;;;22.57;8.37;;;2.30;73.20;;;;;;5030927;28;20331;-71
2022/03/28 06:10:56;;;;;;;20.97;7.67;;;2.50;72.20;;;;;;5032072;28;20187;-70
2022/03/28 06:13:22;;;;;;;28.33;9.13;;;2.70;71.50;;;;;;5025769;28;20217;-71
2022/03/28 06:15:49;;;;;;;26.57;8.87;;;2.90;71.20;;;;;;5027995;28;20279;-70
2022/03/28 06:18:15;;;;;;;27.00;9.13;;;2.90;70.60;;;;;;5024560;28;20196;-69
2022/03/28 06:20:41;;;;;;;21.80;7.63;;;3.00;70.40;;;;;;5020108;28;20191;-71
2022/03/28 06:23:09;;;;;;;14.77;6.60;;;3.10;69.40;;;;;;5025841;28;20181;-71
2022/03/28 06:25:35;;;;;;;21.73;6.80;;;3.20;69.40;;;;;;5024998;28;20206;-70
2022/03/28 06:28:01;;;;;;;21.53;7.00;;;3.40;69.00;;;;;;5021344;28;20197;-71
2022/03/28 06:30:26;;;;;;;18.27;6.73;;;3.60;68.40;;;;;;5029557;28;20183;-71
2022/03/28 06:32:52;;;;;;;14.67;6.20;;;3.70;67.50;;;;;;5027182;28;20242;-71
2022/03/28 06:35:18;;;;;;;18.30;6.27;;;3.80;66.10;;;;;;5019887;28;20248;-70
2022/03/28 06:37:44;;;;;;;25.00;7.63;;;4.00;65.90;;;;;;5027228;28;20246;-68
2022/03/28 06:40:10;;;;;;;18.33;6.60;;;4.20;65.50;;;;;;5023382;28;20216;-72
2022/03/28 06:42:36;;;;;;;15.37;6.03;;;4.30;63.70;;;;;;5029456;28;20185;-71
2022/03/28 06:45:02;;;;;;;12.07;5.60;;;4.50;62.70;;;;;;5019773;28;20181;-70
2022/03/28 06:47:28;;;;;;;15.60;5.70;;;4.50;61.40;;;;;;5030497;28;20244;-70
2022/03/28 06:49:54;;;;;;;16.23;5.73;;;4.60;60.80;;;;;;5020883;28;20261;-70
2022/03/28 06:52:20;;;;;;;16.87;5.83;;;4.70;60.80;;;;;;5031060;28;20211;-69
2022/03/28 06:54:46;;;;;;;13.83;5.83;;;4.80;60.80;;;;;;5029186;28;20272;-72
2022/03/28 06:57:12;;;;;;;17.47;6.13;;;4.90;59.50;;;;;;5031389;28;20271;-69
2022/03/28 06:59:38;;;;;;;15.37;5.20;;;5.00;59.50;;;;;;5015196;28;20371;-71
2022/03/28 07:02:04;;;;;;;18.47;5.43;;;5.20;58.70;;;;;;5024603;28;20814;-70
2022/03/28 07:04:30;;;;;;;12.03;5.00;;;5.40;58.60;;;;;;5032694;28;20171;-70
2022/03/28 07:06:56;;;;;;;11.83;4.63;;;5.60;57.80;;;;;;5032175;28;20684;-72
2022/03/28 07:09:22;;;;;;;18.40;5.83;;;5.80;57.60;;;;;;5014329;28;20186;-72
2022/03/28 07:11:47;;;;;;;16.53;4.83;;;6.00;56.70;;;;;;5014103;28;20644;-70
2022/03/28 07:14:16;;;;;;;11.50;5.03;;;6.10;56.20;;;;;;5014740;28;20505;-71
2022/03/28 07:16:42;;;;;;;13.00;5.63;;;6.20;56.00;;;;;;5031814;28;20271;-71
2022/03/28 07:19:08;;;;;;;12.97;5.20;;;6.40;55.90;;;;;;5031204;28;20175;-71
2022/03/28 07:21:34;;;;;;;14.27;6.10;;;6.50;54.80;;;;;;5031078;28;20278;-70
2022/03/28 07:24:00;;;;;;;11.50;5.73;;;6.50;55.10;;;;;;5030771;28;20279;-69
2022/03/28 07:26:26;;;;;;;14.37;5.73;;;6.60;54.40;;;;;;5030424;28;20198;-71
2022/03/28 07:28:52;;;;;;;16.60;6.10;;;6.70;54.80;;;;;;5030827;28;20208;-71
2022/03/28 07:31:18;;;;;;;17.87;6.50;;;6.90;54.20;;;;;;5030331;28;20190;-69
2022/03/28 07:33:44;;;;;;;11.87;5.93;;;7.00;53.30;;;;;;5013119;28;20657;-70
2022/03/28 07:36:10;;;;;;;20.67;7.07;;;7.10;53.00;;;;;;5018277;28;20697;-71
2022/03/28 07:38:36;;;;;;;18.97;6.80;;;7.10;52.70;;;;;;5011090;28;20177;-71
2022/03/28 07:41:03;;;;;;;22.93;7.70;;;7.20;52.70;;;;;;5011039;28;20215;-72
2022/03/28 07:43:29;;;;;;;27.33;7.70;;;7.30;52.50;;;;;;4994118;28;20197;-72
2022/03/28 07:45:55;;;;;;;21.57;8.00;;;7.50;51.90;;;;;;5011625;28;20572;-72
2022/03/28 07:48:22;;;;;;;16.17;7.43;;;7.70;51.90;;;;;;5011560;28;20179;-70
2022/03/28 07:50:49;;;;;;;15.17;6.97;;;7.80;51.60;;;;;;5011908;28;20178;-69
2022/03/28 07:53:15;;;;;;;20.17;7.50;;;8.00;51.00;;;;;;5011949;28;20662;-72
2022/03/28 07:55:42;;;;;;;17.37;7.43;;;8.10;51.00;;;;;;5011309;28;20242;-70
2022/03/28 07:58:09;;;;;;;17.60;7.63;;;8.10;50.80;;;;;;5011417;28;20632;-70
2022/03/28 08:00:37;;;;;;;28.77;9.90;;;8.20;50.80;;;;;;5011774;28;20620;-70
2022/03/28 08:03:03;;;;;;;18.53;8.07;;;8.30;51.10;;;;;;5011504;28;20285;-72
2022/03/28 08:05:29;;;;;;;19.47;8.47;;;8.50;50.70;;;;;;5011324;28;20259;-70
2022/03/28 08:07:55;;;;;;;16.60;6.83;;;8.60;50.30;;;;;;5011300;28;20175;-72
2022/03/28 08:10:23;;;;;;;18.43;7.67;;;8.80;49.60;;;;;;5011419;28;20718;-70
2022/03/28 08:12:49;;;;;;;17.80;6.83;;;8.90;49.30;;;;;;5011429;28;20257;-72
2022/03/28 08:15:16;;;;;;;18.80;7.50;;;9.00;48.90;;;;;;4993898;28;20201;-71
2022/03/28 08:17:42;;;;;;;27.23;7.07;;;9.10;48.60;;;;;;5011447;28;20632;-71
2022/03/28 08:20:10;;;;;;;17.10;6.03;;;9.30;48.40;;;;;;4993288;28;20215;-72
2022/03/28 08:22:37;;;;;;;17.20;5.80;;;9.40;47.30;;;;;;5010841;28;20192;-71
2022/03/28 08:25:04;;;;;;;20.93;6.73;;;9.50;47.10;;;;;;4993266;28;20512;-72
2022/03/28 08:27:30;;;;;;;21.63;6.30;;;9.60;47.40;;;;;;5010850;28;20713;-72
2022/03/28 08:29:56;;;;;;;13.33;5.73;;;9.80;46.80;;;;;;4993383;28;20210;-72
2022/03/28 08:32:21;;;;;;;15.83;6.07;;;10.00;46.30;;;;;;5011080;28;20327;-71
2022/03/28 08:34:48;;;;;;;18.57;6.93;;;10.10;45.90;;;;;;5014157;28;20492;-72
2022/03/28 08:37:18;;;;;;;13.47;5.77;;;10.20;45.50;;;;;;5030677;28;20276;-70
2022/03/28 08:39:46;;;;;;;16.37;5.73;;;10.30;44.50;;;;;;5030628;28;20654;-69
2022/03/28 08:42:13;;;;;;;15.87;5.90;;;10.40;44.40;;;;;;5030100;28;20615;-71
2022/03/28 08:44:40;;;;;;;12.90;5.40;;;10.60;44.40;;;;;;5013072;28;20197;-71
2022/03/28 08:47:09;;;;;;;13.63;5.73;;;10.70;43.40;;;;;;5030574;28;20276;-72
2022/03/28 08:49:36;;;;;;;15.97;6.50;;;10.80;43.20;;;;;;5030651;28;20241;-71
2022/03/28 08:52:05;;;;;;;15.40;5.93;;;10.90;43.50;;;;;;5030363;28;20264;-71
2022/03/28 08:54:31;;;;;;;12.33;5.60;;;11.00;43.10;;;;;;5030234;28;20652;-73
2022/03/28 08:56:57;;;;;;;17.70;5.63;;;11.10;42.50;;;;;;5029757;28;20171;-69
2022/03/28 08:59:23;;;;;;;14.20;5.03;;;11.30;42.10;;;;;;5029852;28;20183;-70
2022/03/28 09:01:50;;;;;;;15.20;5.70;;;11.40;41.80;;;;;;5030016;28;20241;-69
2022/03/28 09:04:16;;;;;;;16.20;5.30;;;11.60;41.20;;;;;;5030002;28;20186;-72
2022/03/28 09:06:44;;;;;;;13.13;6.30;;;11.70;39.80;;;;;;5012178;28;20600;-71
2022/03/28 09:09:27;;;;;;;13.63;4.87;;;11.80;39.70;;;;;;5032831;28;20183;-70
2022/03/28 09:11:55;;;;;;;20.00;5.33;;;11.90;38.80;;;;;;5015644;28;20542;-68
2022/03/28 09:14:30;;;;;;;11.50;5.40;;;12.00;38.30;;;;;;5033778;28;20181;-71
2022/03/28 09:17:09;;;;;;;14.67;5.73;;;12.10;39.20;;;;;;5034203;28;20201;-70
2022/03/28 09:19:50;;;;;;;12.90;5.80;;;12.20;39.70;;;;;;5033575;28;20620;-73
2022/03/28 09:22:24;;;;;;;12.43;5.57;;;12.30;39.40;;;;;;5033702;28;20184;-70
2022/03/28 09:24:54;;;;;;;15.07;5.03;;;12.40;39.30;;;;;;5033664;28;20688;-71
2022/03/28 09:27:22;;;;;;;14.03;5.80;;;12.50;38.80;;;;;;5033807;28;20167;-72
2022/03/28 09:30:08;;;;;;;13.53;5.60;;;12.70;38.80;;;;;;5033999;28;20611;-71
2022/03/28 09:32:36;;;;;;;15.60;5.40;;;12.90;38.30;;;;;;5033713;28;20592;-71
2022/03/28 09:35:19;;;;;;;15.27;5.10;;;13.00;36.80;;;;;;5029891;28;20567;-71
2022/03/28 09:38:04;;;;;;;12.50;5.47;;;13.10;36.80;;;;;;5013901;28;20618;-70
2022/03/28 09:40:40;;;;;;;10.50;4.70;;;13.10;36.50;;;;;;5014234;28;20271;-70
2022/03/28 09:43:14;;;;;;;10.40;4.40;;;13.20;35.70;;;;;;5013602;28;20202;-71
2022/03/28 09:45:40;;;;;;;14.80;6.23;;;13.10;35.80;;;;;;5013846;28;20211;-71
2022/03/28 09:48:09;;;;;;;17.20;5.33;;;13.30;36.40;;;;;;5013293;28;20186;-70
2022/03/28 09:50:41;;;;;;;14.90;5.40;;;13.50;36.00;;;;;;5013663;28;20182;-71
2022/03/28 09:53:19;;;;;;;14.07;5.30;;;13.60;35.30;;;;;;5011896;28;20233;-71
2022/03/28 09:55:53;;;;;;;13.10;5.53;;;13.70;34.80;;;;;;5013462;28;20178;-71
2022/03/28 09:58:45;;;;;;;15.03;5.70;;;13.80;34.50;;;;;;5012968;28;20203;-71
2022/03/28 10:01:18;;;;;;;14.67;6.53;;;13.80;34.20;;;;;;5011741;28;20188;-71
2022/03/28 10:03:47;;;;;;;15.10;6.07;;;13.90;33.80;;;;;;5011882;28;20600;-72
2022/03/28 10:06:12;;;;;;;14.07;6.47;;;14.10;33.40;;;;;;5010748;28;20573;-71
2022/03/28 10:08:38;;;;;;;18.10;6.80;;;14.20;33.80;;;;;;5011256;28;20190;-71
2022/03/28 10:11:05;;;;;;;13.13;6.20;;;14.40;33.20;;;;;;5011616;28;20187;-71
2022/03/28 10:13:32;;;;;;;14.13;7.60;;;14.50;32.50;;;;;;5013301;28;20218;-69
2022/03/28 10:15:59;;;;;;;13.73;7.67;;;14.50;32.40;;;;;;5012983;28;20211;-67
2022/03/28 10:18:34;;;;;;;15.33;7.77;;;14.60;32.70;;;;;;4995550;28;20215;-70
2022/03/28 10:21:14;;;;;;;16.47;7.40;;;14.70;32.50;;;;;;5012668;28;20174;-71
2022/03/28 10:23:50;;;;;;;32.97;18.03;;;14.90;32.50;;;;;;5012846;28;20167;-71
2022/03/28 10:26:19;;;;;;;22.67;8.03;;;15.00;32.00;;;;;;5012610;28;20186;-70
2022/03/28 10:29:00;;;;;;;20.63;8.50;;;15.20;32.00;;;;;;5012464;28;20273;-72
2022/03/28 10:31:26;;;;;;;23.20;8.90;;;15.40;32.20;;;;;;5013230;28;20191;-72
2022/03/28 10:33:54;;;;;;;23.87;8.80;;;15.50;32.00;;;;;;5012327;28;20268;-69
2022/03/28 10:36:32;;;;;;;16.43;7.17;;;15.70;32.00;;;;;;5014456;28;20190;-70
2022/03/28 10:39:34;;;;;;;20.20;7.87;;;15.90;31.00;;;;;;5032385;28;20498;-68
2022/03/28 10:42:12;;;;;;;19.67;7.90;;;16.00;31.00;;;;;;5026774;28;20197;-70
2022/03/28 10:44:46;;;;;;;19.37;6.87;;;15.90;30.70;;;;;;5028922;28;20232;-71
2022/03/28 10:47:14;;;;;;;25.27;9.20;;;15.80;30.70;;;;;;5031545;28;20190;-71
2022/03/28 10:49:43;;;;;;;20.60;8.23;;;16.10;31.70;;;;;;5013868;28;20615;-72
2022/03/28 10:52:14;;;;;;;22.00;8.73;;;16.40;31.20;;;;;;5031703;28;20305;-70
2022/03/28 10:54:40;;;;;;;19.60;9.77;;;16.60;31.50;;;;;;5031773;28;20186;-71
2022/03/28 10:57:25;;;;;;;46.13;9.00;;;16.80;31.70;;;;;;5013159;28;20187;-70
2022/03/28 11:00:09;;;;;;;11.17;3.83;;;16.90;30.70;;;;;;5030310;28;20163;-70
2022/03/28 11:02:36;;;;;;;13.10;5.57;;;16.70;29.20;;;;;;5026412;28;20273;-70
2022/03/28 11:05:14;;;;;;;23.37;8.03;;;16.70;29.30;;;;;;5031528;28;20187;-71
2022/03/28 11:07:40;;;;;;;17.00;8.07;;;16.80;30.60;;;;;;5031607;28;20179;-70
2022/03/28 11:10:09;;;;;;;16.40;7.07;;;17.00;30.70;;;;;;5013142;28;20175;-71
2022/03/28 11:12:40;;;;;;;16.90;6.60;;;17.20;30.20;;;;;;5031682;28;20366;-71
2022/03/28 11:15:16;;;;;;;16.13;6.80;;;17.30;30.00;;;;;;4997712;28;20217;-70
2022/03/28 11:17:55;;;;;;;17.80;6.93;;;17.40;29.70;;;;;;5032130;28;20163;-71
2022/03/28 11:20:23;;;;;;;16.40;6.57;;;17.60;29.60;;;;;;5031255;28;20314;-71
2022/03/28 11:22:50;;;;;;;17.67;6.53;;;17.70;29.60;;;;;;5031928;28;20187;-70
2022/03/28 11:25:46;;;;;;;17.57;6.47;;;17.90;29.10;;;;;;5031821;28;20179;-71
2022/03/28 11:28:18;;;;;;;12.27;5.30;;;18.10;29.00;;;;;;5031158;28;20659;-72
2022/03/28 11:30:55;;;;;;;14.63;6.03;;;18.20;28.50;;;;;;5030911;28;20187;-72
2022/03/28 11:33:26;;;;;;;13.20;4.37;;;18.50;28.80;;;;;;5031010;28;20284;-70
2022/03/28 11:36:04;;;;;;;13.73;5.57;;;19.10;28.00;;;;;;5021095;28;20322;-73
2022/03/28 11:38:39;;;;;;;16.27;4.78;;;19.30;27.90;;;;;;5010617;28;20616;-72
2022/03/28 11:41:07;;;;;;;8.25;4.05;;;19.80;28.40;;;;;;5011720;28;20172;-73
2022/03/28 11:43:39;;;;;;;15.00;5.15;;;20.30;27.60;;;;;;5010448;28;20202;-71
2022/03/28 11:46:19;;;;;;;12.32;4.57;;;20.80;27.30;;;;;;5011424;28;20187;-72
2022/03/28 11:49:04;;;;;;;13.68;4.60;;;21.80;26.40;;;;;;5011634;28;20223;-71
2022/03/28 11:51:33;;;;;;;10.10;3.33;;;23.00;25.70;;;;;;5011715;28;20172;-71
2022/03/28 11:54:06;;;;;;;7.93;2.67;;;25.00;24.40;;;;;;5011608;28;20264;-72
2022/03/28 11:59:22;;;;;;;9.80;2.97;;;28.20;22.50;;;;;;5011508;28;20629;-73
2022/03/28 12:01:55;;;;;;;7.47;2.58;;;28.50;21.60;;;;;;5011213;28;20179;-71
2022/03/28 12:04:21;;;;;;;8.02;3.00;;;28.30;21.20;;;;;;5011079;28;20164;-71
2022/03/28 12:06:47;;;;;;;7.55;2.50;;;29.00;21.10;;;;;;5011904;28;20537;-72
2022/03/28 12:09:17;;;;;;;4.70;2.53;;;29.60;20.90;;;;;;5009875;28;20334;-70
2022/03/28 12:11:54;;;;;;;13.93;3.63;;;29.70;20.20;;;;;;5011198;28;20620;-72
2022/03/28 12:14:21;;;;;;;7.30;2.25;;;29.60;20.40;;;;;;5011495;28;20213;-72
2022/03/28 12:16:57;;;;;;;7.18;2.97;;;30.60;20.20;;;;;;5009743;28;20628;-71
2022/03/28 12:19:29;;;;;;;12.70;3.90;;;30.70;20.10;;;;;;5011158;28;20547;-73
2022/03/28 12:21:57;;;;;;;6.60;3.05;;;31.30;20.00;;;;;;5010542;28;20285;-72
2022/03/28 12:24:25;;;;;;;7.28;2.83;;;31.10;19.90;;;;;;5047317;28;20193;-72
2022/03/28 12:26:59;;;;;;;5.40;2.65;;;30.10;19.90;;;;;;5018260;28;20206;-71
2022/03/28 12:29:30;;;;;;;11.48;3.90;;;30.50;20.00;;;;;;5030441;28;20158;-72
2022/03/28 12:31:56;;;;;;;7.75;2.83;;;31.00;19.70;;;;;;5013133;28;20164;-70
2022/03/28 12:34:22;;;;;;;7.45;2.72;;;31.00;19.90;;;;;;5030275;28;20179;-71
2022/03/28 12:36:48;;;;;;;6.13;2.95;;;31.90;19.40;;;;;;5032984;28;20182;-73
2022/03/28 12:39:14;;;;;;;12.95;4.28;;;32.20;19.30;;;;;;5028715;28;20232;-71
2022/03/28 12:41:48;;;;;;;5.63;3.30;;;32.20;18.90;;;;;;5030742;28;20198;-72
2022/03/28 12:44:21;;;;;;;7.47;3.22;;;32.60;18.70;;;;;;5015470;28;20201;-73
2022/03/28 12:46:47;;;;;;;10.00;3.35;;;32.60;18.40;;;;;;5032816;28;20191;-70
2022/03/28 12:49:16;;;;;;;8.88;2.95;;;33.30;18.50;;;;;;5034311;28;20237;-71
2022/03/28 12:51:43;;;;;;;7.00;3.17;;;34.30;18.00;;;;;;5034018;28;20179;-70